Flight Track Log - Related Links

Times and Time Zones

All times are in EDT time to prevent confusion due to time zone crossing. See the N988QC flight status page for this flight to view local times or setup timezone preferences in your user account.

Time Position Orientation Groundspeed Altitude Reporting Facility
EDT Latitude Longitude Course Direction KTS MPH feet Rate Location/Type
Thu 07:04:42 AM 33.9819 -83.9011 50° Northeast 185 213 3,300  Level Atlanta Center
Thu 07:05:42 AM 33.9611 -83.8333 110° East 206 237 5,600 2,450 Climbing Atlanta Center
Thu 07:06:42 AM 33.9464 -83.7608 104° East 217 250 8,200 2,600 Climbing Atlanta Center
Thu 07:07:42 AM 33.9775 -83.6831 64° Northeast 222 255 10,800 2,500 Climbing Atlanta Center
Thu 07:08:42 AM 34.0211 -83.6103 54° Northeast 236 272 13,200 1,900 Climbing Atlanta Center
Thu 07:09:42 AM 34.0644 -83.5422 52° Northeast 282 325 14,600 2,150 Climbing Atlanta Center
Thu 07:10:00 AM 34.1554 -83.3255 50° Northeast  Level FlightAware Approximate
Thu 07:10:42 AM 34.1331 -83.4439 50° Northeast 313 360 17,500  Level Atlanta Center
Thu 07:11:42 AM 34.1847 -83.3558 55° Northeast 319 367 19,500 2,000 Climbing Atlanta Center
Thu 07:12:42 AM 34.2406 -83.2700 52° Northeast 319 367 21,500 1,650 Climbing Atlanta Center
Thu 07:13:42 AM 34.3108 -83.1836 45° Northeast 338 389 22,800 1,300 Climbing Atlanta Center
Thu 07:14:42 AM 34.3772 -83.1075 43° Northeast 356 410 24,100 1,400 Climbing Atlanta Center
Thu 07:15:42 AM 34.4619 -83.0183 41° Northeast 367 422 25,600 1,750 Climbing Atlanta Center
Thu 07:16:42 AM 34.5386 -82.9544 34° Northeast 362 417 27,600 1,850 Climbing Atlanta Center
Thu 07:17:42 AM 34.6217 -82.8853 34° Northeast 362 417 29,300 1,550 Climbing Atlanta Center
Thu 07:18:42 AM 34.7003 -82.8158 36° Northeast 356 410 30,700 1,150 Climbing Atlanta Center
Thu 07:19:42 AM 34.7786 -82.7339 41° Northeast 351 404 31,600 1,000 Climbing Atlanta Center
Thu 07:20:42 AM 34.8569 -82.6517 41° Northeast 364 419 32,700 1,000 Climbing Atlanta Center
Thu 07:21:42 AM 34.9331 -82.5567 46° Northeast 376 433 33,600 800 Climbing Atlanta Center
Thu 07:22:42 AM 34.9964 -82.4464 55° Northeast 384 442 34,300 750 Climbing Atlanta Center
Thu 07:23:42 AM 35.0639 -82.3336 54° Northeast 400 460 35,100 400 Climbing Atlanta Center
Thu 07:24:42 AM 35.1411 -82.2050 54° Northeast 425 489 35,100  Level Atlanta Center
Thu 07:25:42 AM 35.2122 -82.0814 55° Northeast 432 497 35,100  Level Atlanta Center
Thu 07:26:42 AM 35.2875 -81.9550 54° Northeast 452 520 35,100  Level Atlanta Center
Thu 07:27:42 AM 35.3503 -81.8411 56° Northeast 452 520 35,100 -50 Level Atlanta Center
Thu 07:28:42 AM 35.4250 -81.7144 54° Northeast 452 520 35,000  Descending Atlanta Center
Thu 07:29:42 AM 35.4978 -81.5872 55° Northeast 458 527 35,100 600 Climbing Atlanta Center
Thu 07:30:42 AM 35.5703 -81.4625 54° Northeast 458 527 36,200 900 Climbing Atlanta Center
Thu 07:31:42 AM 35.6364 -81.3406 56° Northeast 453 521 36,900 400 Climbing Atlanta Center
Thu 07:32:42 AM 35.7044 -81.2078 58° Northeast 448 516 37,000 50 Climbing Atlanta Center
Thu 07:33:42 AM 35.7844 -81.0617 56° Northeast 457 526 37,000  Level Atlanta Center
Thu 07:34:42 AM 35.8394 -80.9239 64° Northeast 449 517 37,000  Level Atlanta Center
Thu 07:35:42 AM 35.8906 -80.8039 62° Northeast 444 511 37,000  Level Atlanta Center
Thu 07:36:42 AM 35.9517 -80.6708 60° Northeast 439 505 37,000  Level Atlanta Center
Thu 07:37:42 AM 36.0183 -80.5217 61° Northeast 439 505 37,000  Level Atlanta Center
Thu 07:39:19 AM 36.1214 -80.3106 59° Northeast 427 491 37,000  Level Washington Center
Thu 07:40:20 AM 36.1850 -80.1806 59° Northeast 432 497 37,000  Level Washington Center
Thu 07:41:20 AM 36.2461 -80.0553 59° Northeast 432 497 37,000  Level Washington Center
Thu 07:42:18 AM 36.3092 -79.9250 59° Northeast 426 490 37,000  Level Washington Center
Thu 07:43:19 AM 36.3847 -79.8000 53° Northeast 438 504 37,000  Level Washington Center
Thu 07:44:19 AM 36.4597 -79.6803 52° Northeast 438 504 37,000  Level Washington Center
Thu 07:45:21 AM 36.5306 -79.5572 54° Northeast 438 504 37,000  Level Washington Center
Thu 07:46:18 AM 36.5969 -79.4467 53° Northeast 444 511 37,000  Level Washington Center
Thu 07:47:19 AM 36.6717 -79.3211 53° Northeast 444 511 37,000  Level Washington Center
Thu 07:48:20 AM 36.7422 -79.1972 55° Northeast 444 511 37,000  Level Washington Center
Thu 07:49:18 AM 36.8236 -79.0583 54° Northeast 444 511 37,000  Level Washington Center
Thu 07:50:19 AM 36.8961 -78.9319 54° Northeast 444 511 37,000  Level Washington Center
Thu 07:51:19 AM 36.9703 -78.8078 53° Northeast 444 511 37,000  Level Washington Center
Thu 07:52:20 AM 37.0425 -78.6831 54° Northeast 444 511 37,000  Level Washington Center
Thu 07:53:18 AM 37.1081 -78.5711 54° Northeast 444 511 37,000  Level Washington Center
Thu 07:54:20 AM 37.1800 -78.4436 55° Northeast 444 511 37,000  Level Washington Center
Thu 07:55:19 AM 37.2536 -78.3186 53° Northeast 444 511 37,000  Level Washington Center
Thu 07:56:20 AM 37.3361 -78.1778 54° Northeast 444 511 37,000  Level Washington Center
Thu 07:57:19 AM 37.3992 -78.0622 55° Northeast 444 511 37,000  Level Washington Center
Thu 07:58:20 AM 37.4706 -77.9311 56° Northeast 449 517 37,000  Level Washington Center
Thu 07:59:18 AM 37.5500 -77.8106 50° Northeast 449 517 37,000  Level Washington Center
Thu 08:00:19 AM 37.6539 -77.7139 36° Northeast 449 517 37,000  Level Washington Center
Thu 08:01:21 AM 37.7558 -77.6194 36° Northeast 449 517 37,000  Level Washington Center
Thu 08:02:19 AM 37.8594 -77.5222 37° Northeast 455 524 37,000  Level Washington Center
Thu 08:03:20 AM 37.9611 -77.4222 38° Northeast 455 524 37,000  Level Washington Center
Thu 08:04:20 AM 38.0606 -77.3272 37° Northeast 455 524 37,000  Level Washington Center
Thu 08:05:21 AM 38.1619 -77.2292 37° Northeast 455 524 37,000 -446 Level Washington Center
Thu 08:06:21 AM 38.2636 -77.1281 38° Northeast 455 524 36,100 -966 Descending Washington Center
Thu 08:07:19 AM 38.3669 -77.0297 37° Northeast 455 524 35,100 -555 Descending Washington Center
Thu 08:08:20 AM 38.4722 -76.9256 38° Northeast 466 536 35,000 -50 Descending Washington Center
Thu 08:09:19 AM 38.5903 -76.8081 38° Northeast 476 548 35,000 -1,000 Level Washington Center
Thu 08:10:20 AM 38.6997 -76.7036 37° Northeast 481 554 33,000 -2,132 Descending Washington Center
Thu 08:11:20 AM 38.8092 -76.5961 37° Northeast 486 559 30,700 -2,132 Descending Washington Center
Thu 08:12:21 AM 38.9142 -76.4906 38° Northeast 486 559 28,700 -2,186 Descending Washington Center
Thu 08:13:18 AM 39.0253 -76.3797 38° Northeast 491 565 26,400 -2,339 Descending Washington Center
Thu 08:14:19 AM 39.1322 -76.2739 37° Northeast 491 565 24,100 -2,066 Descending Washington Center
Thu 08:15:20 AM 39.2414 -76.1650 38° Northeast 491 565 22,200 -1,875 Descending Washington Center
Thu 08:16:59 AM 39.4167 -75.9833 39° Northeast 453 521 19,100 -1,698 Descending Philadelphia TRACON
Thu 08:17:59 AM 39.5000 -75.9000 38° Northeast 438 504 17,700 -1,727 Descending Philadelphia TRACON
Thu 08:19:11 AM 39.6167 -75.7833 38° Northeast 426 490 15,300 -1,773 Descending Philadelphia TRACON
Thu 08:20:11 AM 39.7000 -75.7000 38° Northeast 373 429 13,800 -1,278 Descending Philadelphia TRACON
Thu 08:20:59 AM 39.7667 -75.6333 38° Northeast 357 411 13,000 -450 Descending Philadelphia TRACON
Thu 08:22:11 AM 39.8667 -75.5333 37° Northeast 360 414 12,900  Descending Philadelphia TRACON
Thu 08:23:05 AM 39.9333 -75.4667 37° Northeast 385 443 13,000 53 Climbing Philadelphia TRACON
Thu 08:24:05 AM 40.0167 -75.3833 37° Northeast 381 438 13,000  Level Philadelphia TRACON
Thu 08:24:59 AM 40.1000 -75.3167 31° Northeast 381 438 13,000 -100 Level Philadelphia TRACON
Thu 08:26:05 AM 40.2000 -75.2333 32° Northeast 370 426 12,800 -950 Descending Philadelphia TRACON
Thu 08:26:59 AM 40.2667 -75.1667 37° Northeast 327 376 11,100 -1,514 Descending Philadelphia TRACON
Thu 08:27:52 AM 40.3333 -75.1000 37° Northeast 332 382 10,100 -1,613 Descending New York TRACON
Thu 08:28:58 AM 40.3833 -75.0000 57° Northeast 306 352 7,900 -1,900 Descending New York TRACON
Thu 08:29:52 AM 40.4333 -74.9167 52° Northeast 299 344 6,300 -1,737 Descending New York TRACON
Thu 08:30:52 AM 40.4667 -74.8333 62° Northeast 305 351 4,600 -1,632 Descending New York TRACON
Thu 08:31:46 AM 40.5167 -74.7500 52° Northeast 299 344 3,200 -842 Descending New York TRACON
Thu 08:32:46 AM 40.5500 -74.6500 66° East 279 321 3,000 -100 Descending New York TRACON
Thu 08:33:46 AM 40.6000 -74.5667 52° Northeast 289 333 3,000  Level New York TRACON
Thu 08:34:40 AM 40.6333 -74.5000 57° Northeast 293 337 3,000  Level New York TRACON
Thu 08:35:34 AM 40.6833 -74.4167 52° Northeast 294 338 3,000  Level New York TRACON
Thu 08:36:34 AM 40.7167 -74.3167 66° East 295 339 3,000  Level New York TRACON
Thu 08:37:28 AM 40.7667 -74.2333 52° Northeast 270 311 3,000 -105 Level New York TRACON
Thu 08:38:28 AM 40.8000 -74.1667 57° Northeast 249 287 2,800 -600 Descending New York TRACON
Thu 08:39:28 AM 40.8333 -74.1000 57° Northeast 218 251 1,800 -842 Descending New York TRACON
Thu 08:40:22 AM 40.8667 -74.0667 37° Northeast 153 176 1,200 -789 Descending New York TRACON
Thu 08:41:22 AM 40.8667 -74.0500 90° East 145 167 300 -900 Descending New York TRACON
Thu 08:43:00 AM 40.8500 -74.0500 180° South  Level FlightAware Approximate

Login

Don't have an account? Register now (free) for customized features, flight alerts, and more!